sensor_id;sensor_type;location;lat;lon;timestamp;P1;durP1;ratioP1;P2;durP2;ratioP2
43070;SDS011;36278;47.952;21.714;2023-03-01T00:01:15;18.27;;;11.53;;
43070;SDS011;36278;47.952;21.714;2023-03-01T00:03:43;18.23;;;11.27;;
43070;SDS011;36278;47.952;21.714;2023-03-01T00:06:09;16.50;;;11.10;;
43070;SDS011;36278;47.952;21.714;2023-03-01T00:08:34;19.40;;;11.27;;
43070;SDS011;36278;47.952;21.714;2023-03-01T00:11:01;19.60;;;11.80;;
43070;SDS011;36278;47.952;21.714;2023-03-01T00:13:27;19.13;;;12.10;;
43070;SDS011;36278;47.952;21.714;2023-03-01T00:15:52;18.83;;;12.47;;
43070;SDS011;36278;47.952;21.714;2023-03-01T00:18:18;18.63;;;11.97;;
43070;SDS011;36278;47.952;21.714;2023-03-01T00:20:50;18.90;;;12.17;;
43070;SDS011;36278;47.952;21.714;2023-03-01T00:23:17;18.45;;;12.07;;
43070;SDS011;36278;47.952;21.714;2023-03-01T00:25:42;16.80;;;11.17;;
43070;SDS011;36278;47.952;21.714;2023-03-01T00:28:08;21.67;;;13.03;;
43070;SDS011;36278;47.952;21.714;2023-03-01T00:30:34;19.53;;;13.40;;
43070;SDS011;36278;47.952;21.714;2023-03-01T00:32:59;19.37;;;11.90;;
43070;SDS011;36278;47.952;21.714;2023-03-01T00:35:25;20.10;;;13.83;;
43070;SDS011;36278;47.952;21.714;2023-03-01T00:37:50;19.67;;;12.53;;
43070;SDS011;36278;47.952;21.714;2023-03-01T00:40:26;18.43;;;11.80;;
43070;SDS011;36278;47.952;21.714;2023-03-01T00:42:53;20.37;;;12.93;;
43070;SDS011;36278;47.952;21.714;2023-03-01T00:45:18;22.07;;;13.30;;
43070;SDS011;36278;47.952;21.714;2023-03-01T00:47:44;20.77;;;13.10;;
43070;SDS011;36278;47.952;21.714;2023-03-01T00:50:10;17.23;;;12.40;;
43070;SDS011;36278;47.952;21.714;2023-03-01T00:52:36;19.70;;;12.20;;
43070;SDS011;36278;47.952;21.714;2023-03-01T00:55:03;17.63;;;11.93;;
43070;SDS011;36278;47.952;21.714;2023-03-01T00:57:30;19.07;;;12.60;;
43070;SDS011;36278;47.952;21.714;2023-03-01T00:59:56;23.00;;;14.27;;
43070;SDS011;36278;47.952;21.714;2023-03-01T01:02:21;21.40;;;13.77;;
43070;SDS011;36278;47.952;21.714;2023-03-01T01:04:47;20.53;;;13.40;;
43070;SDS011;36278;47.952;21.714;2023-03-01T01:07:13;20.63;;;13.27;;
43070;SDS011;36278;47.952;21.714;2023-03-01T01:09:39;23.03;;;13.00;;
43070;SDS011;36278;47.952;21.714;2023-03-01T01:12:05;18.93;;;13.20;;
43070;SDS011;36278;47.952;21.714;2023-03-01T01:14:31;21.00;;;13.57;;
43070;SDS011;36278;47.952;21.714;2023-03-01T01:16:57;20.83;;;13.87;;
43070;SDS011;36278;47.952;21.714;2023-03-01T01:19:23;21.47;;;13.13;;
43070;SDS011;36278;47.952;21.714;2023-03-01T01:21:49;19.00;;;13.33;;
43070;SDS011;36278;47.952;21.714;2023-03-01T01:24:14;19.17;;;13.53;;
43070;SDS011;36278;47.952;21.714;2023-03-01T01:26:41;25.23;;;13.73;;
43070;SDS011;36278;47.952;21.714;2023-03-01T01:29:07;21.43;;;14.30;;
43070;SDS011;36278;47.952;21.714;2023-03-01T01:31:33;21.60;;;13.87;;
43070;SDS011;36278;47.952;21.714;2023-03-01T01:34:01;25.70;;;13.97;;
43070;SDS011;36278;47.952;21.714;2023-03-01T01:36:27;19.43;;;13.33;;
43070;SDS011;36278;47.952;21.714;2023-03-01T01:38:53;21.07;;;13.63;;
43070;SDS011;36278;47.952;21.714;2023-03-01T01:41:19;19.77;;;13.97;;
43070;SDS011;36278;47.952;21.714;2023-03-01T01:44:28;24.37;;;14.40;;
43070;SDS011;36278;47.952;21.714;2023-03-01T01:49:31;18.70;;;13.60;;
43070;SDS011;36278;47.952;21.714;2023-03-01T01:51:59;22.43;;;13.67;;
43070;SDS011;36278;47.952;21.714;2023-03-01T01:54:41;22.30;;;13.60;;
43070;SDS011;36278;47.952;21.714;2023-03-01T01:57:32;21.37;;;13.83;;
43070;SDS011;36278;47.952;21.714;2023-03-01T02:00:05;21.10;;;13.40;;
43070;SDS011;36278;47.952;21.714;2023-03-01T02:02:36;21.53;;;14.63;;
43070;SDS011;36278;47.952;21.714;2023-03-01T02:05:12;22.97;;;15.40;;
43070;SDS011;36278;47.952;21.714;2023-03-01T02:07:44;21.87;;;13.97;;
43070;SDS011;36278;47.952;21.714;2023-03-01T02:10:11;21.17;;;14.77;;
43070;SDS011;36278;47.952;21.714;2023-03-01T02:12:37;22.73;;;14.07;;
43070;SDS011;36278;47.952;21.714;2023-03-01T02:15:04;23.17;;;14.80;;
43070;SDS011;36278;47.952;21.714;2023-03-01T02:17:30;21.80;;;13.97;;
43070;SDS011;36278;47.952;21.714;2023-03-01T02:20:09;21.73;;;13.90;;
43070;SDS011;36278;47.952;21.714;2023-03-01T02:22:46;20.57;;;13.80;;
43070;SDS011;36278;47.952;21.714;2023-03-01T02:25:19;21.60;;;14.70;;
43070;SDS011;36278;47.952;21.714;2023-03-01T02:28:00;20.97;;;13.47;;
43070;SDS011;36278;47.952;21.714;2023-03-01T02:30:43;20.70;;;13.53;;
43070;SDS011;36278;47.952;21.714;2023-03-01T02:33:30;19.43;;;13.50;;
43070;SDS011;36278;47.952;21.714;2023-03-01T02:35:58;17.83;;;12.30;;
43070;SDS011;36278;47.952;21.714;2023-03-01T02:38:25;22.63;;;12.67;;
43070;SDS011;36278;47.952;21.714;2023-03-01T02:40:51;18.30;;;11.93;;
43070;SDS011;36278;47.952;21.714;2023-03-01T02:43:17;18.57;;;12.53;;
43070;SDS011;36278;47.952;21.714;2023-03-01T02:45:51;19.93;;;13.30;;
43070;SDS011;36278;47.952;21.714;2023-03-01T02:48:18;18.70;;;12.67;;
43070;SDS011;36278;47.952;21.714;2023-03-01T02:51:10;27.07;;;12.90;;
43070;SDS011;36278;47.952;21.714;2023-03-01T02:54:04;21.70;;;13.13;;
43070;SDS011;36278;47.952;21.714;2023-03-01T02:56:35;19.70;;;12.57;;
43070;SDS011;36278;47.952;21.714;2023-03-01T02:59:00;16.93;;;11.67;;
43070;SDS011;36278;47.952;21.714;2023-03-01T03:01:27;16.20;;;12.47;;
43070;SDS011;36278;47.952;21.714;2023-03-01T03:04:05;19.97;;;13.20;;
43070;SDS011;36278;47.952;21.714;2023-03-01T03:06:32;18.87;;;12.37;;
43070;SDS011;36278;47.952;21.714;2023-03-01T03:08:58;18.60;;;11.67;;
43070;SDS011;36278;47.952;21.714;2023-03-01T03:11:24;16.70;;;10.67;;
43070;SDS011;36278;47.952;21.714;2023-03-01T03:13:50;19.27;;;12.03;;
43070;SDS011;36278;47.952;21.714;2023-03-01T03:16:17;18.63;;;12.33;;
43070;SDS011;36278;47.952;21.714;2023-03-01T03:18:43;20.90;;;12.43;;
43070;SDS011;36278;47.952;21.714;2023-03-01T03:21:09;16.33;;;11.77;;
43070;SDS011;36278;47.952;21.714;2023-03-01T03:23:36;19.37;;;12.30;;
43070;SDS011;36278;47.952;21.714;2023-03-01T03:26:02;18.67;;;11.70;;
43070;SDS011;36278;47.952;21.714;2023-03-01T03:28:32;18.17;;;11.63;;
43070;SDS011;36278;47.952;21.714;2023-03-01T03:30:58;16.43;;;10.93;;
43070;SDS011;36278;47.952;21.714;2023-03-01T03:33:29;17.43;;;11.53;;
43070;SDS011;36278;47.952;21.714;2023-03-01T03:35:55;15.87;;;10.70;;
43070;SDS011;36278;47.952;21.714;2023-03-01T03:38:20;18.23;;;11.40;;
43070;SDS011;36278;47.952;21.714;2023-03-01T03:40:50;18.13;;;11.30;;
43070;SDS011;36278;47.952;21.714;2023-03-01T03:43:26;19.30;;;12.77;;
43070;SDS011;36278;47.952;21.714;2023-03-01T03:45:51;16.07;;;11.47;;
43070;SDS011;36278;47.952;21.714;2023-03-01T03:48:17;17.73;;;10.47;;
43070;SDS011;36278;47.952;21.714;2023-03-01T03:50:48;17.13;;;11.20;;
43070;SDS011;36278;47.952;21.714;2023-03-01T03:53:14;15.13;;;10.40;;
43070;SDS011;36278;47.952;21.714;2023-03-01T03:55:40;17.30;;;11.20;;
43070;SDS011;36278;47.952;21.714;2023-03-01T03:58:07;17.37;;;11.03;;
43070;SDS011;36278;47.952;21.714;2023-03-01T04:00:38;16.57;;;10.83;;
43070;SDS011;36278;47.952;21.714;2023-03-01T04:03:08;17.03;;;10.40;;
43070;SDS011;36278;47.952;21.714;2023-03-01T04:05:35;17.03;;;10.37;;
43070;SDS011;36278;47.952;21.714;2023-03-01T04:08:01;20.77;;;11.03;;
43070;SDS011;36278;47.952;21.714;2023-03-01T04:10:31;15.47;;;10.30;;
43070;SDS011;36278;47.952;21.714;2023-03-01T04:12:58;15.67;;;10.80;;
43070;SDS011;36278;47.952;21.714;2023-03-01T04:15:24;17.57;;;11.77;;
43070;SDS011;36278;47.952;21.714;2023-03-01T04:17:52;13.90;;;9.50;;
43070;SDS011;36278;47.952;21.714;2023-03-01T04:20:19;16.47;;;10.90;;
43070;SDS011;36278;47.952;21.714;2023-03-01T04:22:50;14.57;;;10.03;;
43070;SDS011;36278;47.952;21.714;2023-03-01T04:25:17;16.73;;;10.57;;
43070;SDS011;36278;47.952;21.714;2023-03-01T04:27:43;16.37;;;10.40;;
43070;SDS011;36278;47.952;21.714;2023-03-01T04:30:09;16.17;;;9.77;;
43070;SDS011;36278;47.952;21.714;2023-03-01T04:32:35;18.23;;;10.37;;
43070;SDS011;36278;47.952;21.714;2023-03-01T04:35:00;15.53;;;9.47;;
43070;SDS011;36278;47.952;21.714;2023-03-01T04:37:26;14.47;;;9.80;;
43070;SDS011;36278;47.952;21.714;2023-03-01T04:39:52;14.93;;;10.67;;
43070;SDS011;36278;47.952;21.714;2023-03-01T04:42:18;15.23;;;9.87;;
43070;SDS011;36278;47.952;21.714;2023-03-01T04:44:44;15.00;;;10.30;;
43070;SDS011;36278;47.952;21.714;2023-03-01T04:47:10;18.80;;;10.60;;
43070;SDS011;36278;47.952;21.714;2023-03-01T04:49:36;15.57;;;9.43;;
43070;SDS011;36278;47.952;21.714;2023-03-01T04:52:02;19.93;;;10.17;;
43070;SDS011;36278;47.952;21.714;2023-03-01T04:54:28;14.17;;;9.70;;
43070;SDS011;36278;47.952;21.714;2023-03-01T04:56:54;13.33;;;9.90;;
43070;SDS011;36278;47.952;21.714;2023-03-01T04:59:20;19.60;;;10.37;;
43070;SDS011;36278;47.952;21.714;2023-03-01T05:01:48;17.20;;;11.13;;
43070;SDS011;36278;47.952;21.714;2023-03-01T05:04:14;16.03;;;10.07;;
43070;SDS011;36278;47.952;21.714;2023-03-01T05:06:40;17.43;;;11.00;;
43070;SDS011;36278;47.952;21.714;2023-03-01T05:09:05;17.57;;;11.23;;
43070;SDS011;36278;47.952;21.714;2023-03-01T05:11:31;20.93;;;13.57;;
43070;SDS011;36278;47.952;21.714;2023-03-01T05:14:01;22.57;;;14.00;;
43070;SDS011;36278;47.952;21.714;2023-03-01T05:16:30;19.63;;;13.47;;
43070;SDS011;36278;47.952;21.714;2023-03-01T05:18:56;18.80;;;11.77;;
43070;SDS011;36278;47.952;21.714;2023-03-01T05:21:22;16.03;;;10.50;;
43070;SDS011;36278;47.952;21.714;2023-03-01T05:23:47;14.63;;;10.30;;
43070;SDS011;36278;47.952;21.714;2023-03-01T05:26:13;16.07;;;10.20;;
43070;SDS011;36278;47.952;21.714;2023-03-01T05:28:39;16.07;;;11.33;;
43070;SDS011;36278;47.952;21.714;2023-03-01T05:31:05;19.73;;;12.53;;
43070;SDS011;36278;47.952;21.714;2023-03-01T05:33:35;20.50;;;13.73;;
43070;SDS011;36278;47.952;21.714;2023-03-01T05:36:04;18.93;;;11.90;;
43070;SDS011;36278;47.952;21.714;2023-03-01T05:38:31;17.17;;;11.77;;
43070;SDS011;36278;47.952;21.714;2023-03-01T05:40:56;17.60;;;11.57;;
43070;SDS011;36278;47.952;21.714;2023-03-01T05:43:22;15.03;;;10.80;;
43070;SDS011;36278;47.952;21.714;2023-03-01T05:45:47;16.03;;;10.53;;
43070;SDS011;36278;47.952;21.714;2023-03-01T05:48:13;14.90;;;10.80;;
43070;SDS011;36278;47.952;21.714;2023-03-01T05:50:43;16.90;;;10.60;;
43070;SDS011;36278;47.952;21.714;2023-03-01T05:53:16;84.77;;;16.50;;
43070;SDS011;36278;47.952;21.714;2023-03-01T05:55:44;18.27;;;10.30;;
43070;SDS011;36278;47.952;21.714;2023-03-01T05:58:14;15.73;;;11.40;;
43070;SDS011;36278;47.952;21.714;2023-03-01T06:00:40;19.80;;;12.17;;
43070;SDS011;36278;47.952;21.714;2023-03-01T06:03:09;17.23;;;11.77;;
43070;SDS011;36278;47.952;21.714;2023-03-01T06:05:35;15.23;;;10.57;;
43070;SDS011;36278;47.952;21.714;2023-03-01T06:08:01;16.23;;;10.07;;
43070;SDS011;36278;47.952;21.714;2023-03-01T06:10:28;15.80;;;9.50;;
43070;SDS011;36278;47.952;21.714;2023-03-01T06:12:54;13.77;;;9.83;;
43070;SDS011;36278;47.952;21.714;2023-03-01T06:15:19;14.87;;;9.27;;
43070;SDS011;36278;47.952;21.714;2023-03-01T06:17:45;15.70;;;9.70;;
43070;SDS011;36278;47.952;21.714;2023-03-01T06:20:21;12.43;;;9.00;;
43070;SDS011;36278;47.952;21.714;2023-03-01T06:22:48;17.33;;;9.27;;
43070;SDS011;36278;47.952;21.714;2023-03-01T06:25:19;17.77;;;9.57;;
43070;SDS011;36278;47.952;21.714;2023-03-01T06:27:47;14.67;;;10.30;;
43070;SDS011;36278;47.952;21.714;2023-03-01T06:30:14;13.57;;;8.57;;
43070;SDS011;36278;47.952;21.714;2023-03-01T06:32:41;19.63;;;9.00;;
43070;SDS011;36278;47.952;21.714;2023-03-01T06:35:07;15.07;;;8.93;;
43070;SDS011;36278;47.952;21.714;2023-03-01T06:37:35;12.83;;;9.20;;
43070;SDS011;36278;47.952;21.714;2023-03-01T06:40:01;17.40;;;9.13;;
43070;SDS011;36278;47.952;21.714;2023-03-01T06:42:33;15.20;;;8.50;;
43070;SDS011;36278;47.952;21.714;2023-03-01T06:45:02;12.23;;;8.73;;
43070;SDS011;36278;47.952;21.714;2023-03-01T06:47:28;14.07;;;8.97;;
43070;SDS011;36278;47.952;21.714;2023-03-01T06:49:53;13.87;;;8.63;;
43070;SDS011;36278;47.952;21.714;2023-03-01T06:52:19;13.80;;;8.23;;
43070;SDS011;36278;47.952;21.714;2023-03-01T06:54:44;11.87;;;8.37;;
43070;SDS011;36278;47.952;21.714;2023-03-01T06:57:10;12.73;;;7.87;;
43070;SDS011;36278;47.952;21.714;2023-03-01T06:59:35;12.93;;;8.40;;
43070;SDS011;36278;47.952;21.714;2023-03-01T07:02:00;14.27;;;7.73;;
43070;SDS011;36278;47.952;21.714;2023-03-01T07:04:26;11.03;;;7.67;;
43070;SDS011;36278;47.952;21.714;2023-03-01T07:06:53;10.83;;;7.70;;
43070;SDS011;36278;47.952;21.714;2023-03-01T07:09:23;15.27;;;7.53;;
43070;SDS011;36278;47.952;21.714;2023-03-01T07:11:49;11.83;;;8.07;;
43070;SDS011;36278;47.952;21.714;2023-03-01T07:14:15;11.00;;;7.70;;
43070;SDS011;36278;47.952;21.714;2023-03-01T07:16:41;12.17;;;8.23;;
43070;SDS011;36278;47.952;21.714;2023-03-01T07:19:07;11.17;;;7.93;;
43070;SDS011;36278;47.952;21.714;2023-03-01T07:21:33;10.40;;;7.90;;
43070;SDS011;36278;47.952;21.714;2023-03-01T07:23:58;12.93;;;8.43;;
43070;SDS011;36278;47.952;21.714;2023-03-01T07:26:24;12.30;;;8.53;;
43070;SDS011;36278;47.952;21.714;2023-03-01T07:28:49;17.93;;;9.30;;
43070;SDS011;36278;47.952;21.714;2023-03-01T07:31:15;16.87;;;9.33;;
43070;SDS011;36278;47.952;21.714;2023-03-01T07:33:41;14.73;;;9.70;;
43070;SDS011;36278;47.952;21.714;2023-03-01T07:36:07;14.30;;;9.17;;
43070;SDS011;36278;47.952;21.714;2023-03-01T07:38:33;14.37;;;8.73;;
43070;SDS011;36278;47.952;21.714;2023-03-01T07:40:59;13.63;;;8.47;;
43070;SDS011;36278;47.952;21.714;2023-03-01T07:43:26;14.17;;;9.20;;
43070;SDS011;36278;47.952;21.714;2023-03-01T07:45:58;14.27;;;9.30;;
43070;SDS011;36278;47.952;21.714;2023-03-01T07:48:25;15.50;;;8.70;;
43070;SDS011;36278;47.952;21.714;2023-03-01T07:50:51;17.47;;;8.77;;
43070;SDS011;36278;47.952;21.714;2023-03-01T07:53:16;12.70;;;9.93;;
43070;SDS011;36278;47.952;21.714;2023-03-01T07:55:42;13.87;;;9.00;;
43070;SDS011;36278;47.952;21.714;2023-03-01T07:58:07;14.50;;;8.40;;
43070;SDS011;36278;47.952;21.714;2023-03-01T08:00:33;15.00;;;8.00;;
43070;SDS011;36278;47.952;21.714;2023-03-01T08:02:59;11.43;;;7.53;;
43070;SDS011;36278;47.952;21.714;2023-03-01T08:05:26;15.57;;;9.17;;
43070;SDS011;36278;47.952;21.714;2023-03-01T08:07:52;17.30;;;8.70;;
43070;SDS011;36278;47.952;21.714;2023-03-01T08:10:17;16.43;;;7.97;;
43070;SDS011;36278;47.952;21.714;2023-03-01T08:12:43;11.83;;;8.73;;
43070;SDS011;36278;47.952;21.714;2023-03-01T08:15:09;11.20;;;7.83;;
43070;SDS011;36278;47.952;21.714;2023-03-01T08:17:35;12.60;;;8.30;;
43070;SDS011;36278;47.952;21.714;2023-03-01T08:20:00;12.50;;;8.07;;
43070;SDS011;36278;47.952;21.714;2023-03-01T08:22:26;15.73;;;9.53;;
43070;SDS011;36278;47.952;21.714;2023-03-01T08:24:51;11.67;;;7.57;;
43070;SDS011;36278;47.952;21.714;2023-03-01T08:27:17;12.07;;;8.00;;
43070;SDS011;36278;47.952;21.714;2023-03-01T08:29:43;16.73;;;8.17;;
43070;SDS011;36278;47.952;21.714;2023-03-01T08:32:08;10.93;;;7.07;;
43070;SDS011;36278;47.952;21.714;2023-03-01T08:34:34;10.73;;;7.17;;
43070;SDS011;36278;47.952;21.714;2023-03-01T08:37:00;14.37;;;8.17;;
43070;SDS011;36278;47.952;21.714;2023-03-01T08:39:26;15.03;;;9.97;;
43070;SDS011;36278;47.952;21.714;2023-03-01T08:41:52;14.20;;;8.13;;
43070;SDS011;36278;47.952;21.714;2023-03-01T08:44:18;13.27;;;8.77;;
43070;SDS011;36278;47.952;21.714;2023-03-01T08:46:44;10.10;;;7.63;;
43070;SDS011;36278;47.952;21.714;2023-03-01T08:49:12;9.00;;;7.03;;
43070;SDS011;36278;47.952;21.714;2023-03-01T08:51:40;13.73;;;7.23;;
43070;SDS011;36278;47.952;21.714;2023-03-01T08:54:09;10.23;;;7.47;;
43070;SDS011;36278;47.952;21.714;2023-03-01T08:56:37;12.57;;;7.53;;
43070;SDS011;36278;47.952;21.714;2023-03-01T08:59:02;11.90;;;7.70;;
43070;SDS011;36278;47.952;21.714;2023-03-01T09:01:28;10.77;;;7.20;;
43070;SDS011;36278;47.952;21.714;2023-03-01T09:03:54;11.60;;;8.53;;
43070;SDS011;36278;47.952;21.714;2023-03-01T09:06:19;8.87;;;7.30;;
43070;SDS011;36278;47.952;21.714;2023-03-01T09:08:46;11.90;;;7.90;;
43070;SDS011;36278;47.952;21.714;2023-03-01T09:11:14;12.27;;;8.50;;
43070;SDS011;36278;47.952;21.714;2023-03-01T09:13:41;11.30;;;7.93;;
43070;SDS011;36278;47.952;21.714;2023-03-01T09:16:08;10.37;;;7.33;;
43070;SDS011;36278;47.952;21.714;2023-03-01T09:18:34;11.63;;;7.53;;
43070;SDS011;36278;47.952;21.714;2023-03-01T09:21:14;12.23;;;7.73;;
43070;SDS011;36278;47.952;21.714;2023-03-01T09:23:41;10.33;;;7.60;;
43070;SDS011;36278;47.952;21.714;2023-03-01T09:26:09;10.10;;;7.83;;
43070;SDS011;36278;47.952;21.714;2023-03-01T09:28:37;9.63;;;7.10;;
43070;SDS011;36278;47.952;21.714;2023-03-01T09:31:03;11.90;;;7.43;;
43070;SDS011;36278;47.952;21.714;2023-03-01T09:33:29;12.03;;;8.47;;
43070;SDS011;36278;47.952;21.714;2023-03-01T09:36:01;11.43;;;7.90;;
43070;SDS011;36278;47.952;21.714;2023-03-01T09:38:29;9.90;;;7.05;;
43070;SDS011;36278;47.952;21.714;2023-03-01T09:40:55;11.70;;;7.23;;
43070;SDS011;36278;47.952;21.714;2023-03-01T09:45:51;12.63;;;8.10;;
43070;SDS011;36278;47.952;21.714;2023-03-01T09:48:21;12.87;;;8.70;;
43070;SDS011;36278;47.952;21.714;2023-03-01T09:50:49;11.30;;;7.27;;
43070;SDS011;36278;47.952;21.714;2023-03-01T09:53:17;11.23;;;8.00;;
43070;SDS011;36278;47.952;21.714;2023-03-01T10:01:27;10.30;;;7.43;;
43070;SDS011;36278;47.952;21.714;2023-03-01T10:07:05;11.30;;;8.43;;
43070;SDS011;36278;47.952;21.714;2023-03-01T10:09:43;13.40;;;8.40;;
43070;SDS011;36278;47.952;21.714;2023-03-01T10:12:12;10.83;;;7.50;;
43070;SDS011;36278;47.952;21.714;2023-03-01T10:14:55;10.23;;;7.03;;
43070;SDS011;36278;47.952;21.714;2023-03-01T10:17:43;9.47;;;6.73;;
43070;SDS011;36278;47.952;21.714;2023-03-01T10:22:49;12.00;;;7.87;;
43070;SDS011;36278;47.952;21.714;2023-03-01T10:30:42;10.57;;;7.57;;
43070;SDS011;36278;47.952;21.714;2023-03-01T10:33:31;12.43;;;8.43;;
43070;SDS011;36278;47.952;21.714;2023-03-01T10:36:01;15.77;;;8.17;;
43070;SDS011;36278;47.952;21.714;2023-03-01T10:38:27;11.60;;;6.50;;
43070;SDS011;36278;47.952;21.714;2023-03-01T10:40:57;14.30;;;6.80;;
43070;SDS011;36278;47.952;21.714;2023-03-01T10:43:44;9.43;;;6.33;;
43070;SDS011;36278;47.952;21.714;2023-03-01T10:51:49;9.50;;;5.45;;
43070;SDS011;36278;47.952;21.714;2023-03-01T10:56:57;11.97;;;6.70;;
43070;SDS011;36278;47.952;21.714;2023-03-01T10:59:27;10.88;;;6.60;;
43070;SDS011;36278;47.952;21.714;2023-03-01T11:07:48;11.17;;;6.83;;
43070;SDS011;36278;47.952;21.714;2023-03-01T11:10:18;9.40;;;6.67;;
43070;SDS011;36278;47.952;21.714;2023-03-01T11:12:45;9.40;;;6.93;;
43070;SDS011;36278;47.952;21.714;2023-03-01T11:15:21;11.90;;;6.83;;
43070;SDS011;36278;47.952;21.714;2023-03-01T11:17:50;10.17;;;7.03;;
43070;SDS011;36278;47.952;21.714;2023-03-01T11:22:49;11.33;;;6.77;;
43070;SDS011;36278;47.952;21.714;2023-03-01T11:25:23;11.30;;;6.80;;
43070;SDS011;36278;47.952;21.714;2023-03-01T11:27:51;10.07;;;6.00;;
43070;SDS011;36278;47.952;21.714;2023-03-01T11:31:18;9.63;;;6.53;;
43070;SDS011;36278;47.952;21.714;2023-03-01T11:36:01;8.93;;;6.40;;
43070;SDS011;36278;47.952;21.714;2023-03-01T11:38:41;9.73;;;6.87;;
43070;SDS011;36278;47.952;21.714;2023-03-01T11:41:10;9.90;;;7.23;;
43070;SDS011;36278;47.952;21.714;2023-03-01T11:52:08;9.50;;;6.73;;
43070;SDS011;36278;47.952;21.714;2023-03-01T11:55:03;8.50;;;6.53;;
43070;SDS011;36278;47.952;21.714;2023-03-01T11:58:01;10.00;;;5.80;;
43070;SDS011;36278;47.952;21.714;2023-03-01T12:14:59;10.90;;;7.63;;
43070;SDS011;36278;47.952;21.714;2023-03-01T12:20:37;9.17;;;6.53;;
43070;SDS011;36278;47.952;21.714;2023-03-01T12:23:31;6.70;;;5.00;;
43070;SDS011;36278;47.952;21.714;2023-03-01T12:26:26;7.87;;;6.13;;
43070;SDS011;36278;47.952;21.714;2023-03-01T12:29:39;8.67;;;6.30;;
43070;SDS011;36278;47.952;21.714;2023-03-01T12:31:58;8.02;;;6.03;;
43070;SDS011;36278;47.952;21.714;2023-03-01T12:34:44;10.13;;;6.17;;
43070;SDS011;36278;47.952;21.714;2023-03-01T12:37:36;9.57;;;6.10;;
43070;SDS011;36278;47.952;21.714;2023-03-01T12:45:44;10.67;;;6.30;;
43070;SDS011;36278;47.952;21.714;2023-03-01T12:51:06;8.60;;;5.40;;
43070;SDS011;36278;47.952;21.714;2023-03-01T12:53:55;9.70;;;5.20;;
43070;SDS011;36278;47.952;21.714;2023-03-01T12:56:25;8.30;;;5.13;;
43070;SDS011;36278;47.952;21.714;2023-03-01T13:07:19;9.57;;;6.37;;
43070;SDS011;36278;47.952;21.714;2023-03-01T13:09:59;9.17;;;5.13;;
43070;SDS011;36278;47.952;21.714;2023-03-01T13:12:53;9.27;;;6.37;;
43070;SDS011;36278;47.952;21.714;2023-03-01T13:15:30;9.90;;;5.60;;
43070;SDS011;36278;47.952;21.714;2023-03-01T13:31:06;5.87;;;4.67;;
43070;SDS011;36278;47.952;21.714;2023-03-01T13:33:42;8.50;;;5.18;;
43070;SDS011;36278;47.952;21.714;2023-03-01T13:36:58;9.65;;;5.28;;
43070;SDS011;36278;47.952;21.714;2023-03-01T13:41:53;6.53;;;4.67;;
43070;SDS011;36278;47.952;21.714;2023-03-01T13:44:35;6.73;;;4.03;;
43070;SDS011;36278;47.952;21.714;2023-03-01T13:54:49;6.60;;;4.10;;
43070;SDS011;36278;47.952;21.714;2023-03-01T13:57:18;5.80;;;3.63;;
43070;SDS011;36278;47.952;21.714;2023-03-01T13:59:48;6.33;;;4.17;;
43070;SDS011;36278;47.952;21.714;2023-03-01T14:02:14;7.00;;;4.27;;
43070;SDS011;36278;47.952;21.714;2023-03-01T14:04:40;7.97;;;4.77;;
43070;SDS011;36278;47.952;21.714;2023-03-01T14:07:10;7.13;;;4.67;;
43070;SDS011;36278;47.952;21.714;2023-03-01T14:09:44;7.23;;;4.67;;
43070;SDS011;36278;47.952;21.714;2023-03-01T14:17:55;7.67;;;5.37;;
43070;SDS011;36278;47.952;21.714;2023-03-01T14:20:24;8.23;;;5.57;;
43070;SDS011;36278;47.952;21.714;2023-03-01T14:22:53;9.23;;;5.00;;
43070;SDS011;36278;47.952;21.714;2023-03-01T14:28:02;8.10;;;5.35;;
43070;SDS011;36278;47.952;21.714;2023-03-01T14:30:37;7.88;;;4.70;;
43070;SDS011;36278;47.952;21.714;2023-03-01T14:33:16;6.17;;;4.90;;
43070;SDS011;36278;47.952;21.714;2023-03-01T14:38:33;6.75;;;5.53;;
43070;SDS011;36278;47.952;21.714;2023-03-01T14:41:16;8.17;;;6.80;;
43070;SDS011;36278;47.952;21.714;2023-03-01T14:43:46;7.25;;;5.38;;
43070;SDS011;36278;47.952;21.714;2023-03-01T14:48:51;8.40;;;5.50;;
43070;SDS011;36278;47.952;21.714;2023-03-01T14:51:19;7.87;;;6.03;;
43070;SDS011;36278;47.952;21.714;2023-03-01T14:53:45;7.47;;;5.77;;
43070;SDS011;36278;47.952;21.714;2023-03-01T14:56:15;7.60;;;5.70;;
43070;SDS011;36278;47.952;21.714;2023-03-01T14:58:45;8.13;;;5.87;;
43070;SDS011;36278;47.952;21.714;2023-03-01T15:01:15;8.57;;;6.10;;
43070;SDS011;36278;47.952;21.714;2023-03-01T15:03:42;10.23;;;5.80;;
43070;SDS011;36278;47.952;21.714;2023-03-01T15:06:10;7.37;;;5.87;;
43070;SDS011;36278;47.952;21.714;2023-03-01T15:08:41;9.27;;;6.10;;
43070;SDS011;36278;47.952;21.714;2023-03-01T15:11:21;10.20;;;5.73;;
43070;SDS011;36278;47.952;21.714;2023-03-01T15:13:50;10.27;;;6.70;;
43070;SDS011;36278;47.952;21.714;2023-03-01T15:16:18;9.03;;;6.83;;
43070;SDS011;36278;47.952;21.714;2023-03-01T15:19:06;9.57;;;6.67;;
43070;SDS011;36278;47.952;21.714;2023-03-01T15:24:16;9.57;;;6.07;;
43070;SDS011;36278;47.952;21.714;2023-03-01T15:26:52;9.83;;;6.97;;
43070;SDS011;36278;47.952;21.714;2023-03-01T15:29:21;9.60;;;6.70;;
43070;SDS011;36278;47.952;21.714;2023-03-01T15:32:24;9.77;;;6.63;;
43070;SDS011;36278;47.952;21.714;2023-03-01T15:34:45;10.00;;;6.20;;
43070;SDS011;36278;47.952;21.714;2023-03-01T15:42:58;11.73;;;6.50;;
43070;SDS011;36278;47.952;21.714;2023-03-01T15:45:24;8.80;;;5.83;;
43070;SDS011;36278;47.952;21.714;2023-03-01T15:47:53;8.77;;;6.30;;
43070;SDS011;36278;47.952;21.714;2023-03-01T15:50:32;8.30;;;6.20;;
43070;SDS011;36278;47.952;21.714;2023-03-01T15:53:01;13.20;;;6.77;;
43070;SDS011;36278;47.952;21.714;2023-03-01T15:55:32;11.20;;;6.60;;
43070;SDS011;36278;47.952;21.714;2023-03-01T15:57:59;11.37;;;5.83;;
43070;SDS011;36278;47.952;21.714;2023-03-01T16:00:26;10.37;;;6.40;;
43070;SDS011;36278;47.952;21.714;2023-03-01T16:02:52;11.13;;;6.53;;
43070;SDS011;36278;47.952;21.714;2023-03-01T16:05:28;11.40;;;7.17;;
43070;SDS011;36278;47.952;21.714;2023-03-01T16:07:56;11.10;;;6.37;;
43070;SDS011;36278;47.952;21.714;2023-03-01T16:10:22;7.87;;;5.40;;
43070;SDS011;36278;47.952;21.714;2023-03-01T16:12:49;9.47;;;6.30;;
43070;SDS011;36278;47.952;21.714;2023-03-01T16:15:18;14.13;;;6.53;;
43070;SDS011;36278;47.952;21.714;2023-03-01T16:17:45;10.73;;;7.17;;
43070;SDS011;36278;47.952;21.714;2023-03-01T16:20:11;12.03;;;6.73;;
43070;SDS011;36278;47.952;21.714;2023-03-01T16:22:37;14.67;;;6.80;;
43070;SDS011;36278;47.952;21.714;2023-03-01T16:25:03;12.43;;;7.70;;
43070;SDS011;36278;47.952;21.714;2023-03-01T16:27:29;12.63;;;7.30;;
43070;SDS011;36278;47.952;21.714;2023-03-01T16:29:54;12.13;;;7.80;;
43070;SDS011;36278;47.952;21.714;2023-03-01T16:32:19;17.60;;;8.07;;
43070;SDS011;36278;47.952;21.714;2023-03-01T16:34:45;13.00;;;7.53;;
43070;SDS011;36278;47.952;21.714;2023-03-01T16:37:14;13.23;;;7.97;;
43070;SDS011;36278;47.952;21.714;2023-03-01T16:39:40;17.60;;;8.50;;
43070;SDS011;36278;47.952;21.714;2023-03-01T16:42:05;13.60;;;8.53;;